createdAt,value
2017-09-21T00:01:47.879Z,7.50
2017-09-21T00:04:15.391Z,8.43
2017-09-21T00:06:42.891Z,7.50
2017-09-21T00:09:10.409Z,8.13
2017-09-21T00:11:37.897Z,7.32
2017-09-21T00:14:05.418Z,9.00
2017-09-21T00:16:32.921Z,8.27
2017-09-21T00:19:00.421Z,7.72
2017-09-21T00:21:27.930Z,7.70
2017-09-21T00:23:55.462Z,7.60
2017-09-21T00:26:22.958Z,7.10
2017-09-21T00:28:51.240Z,7.37
2017-09-21T00:31:18.738Z,7.90
2017-09-21T00:33:47.010Z,7.82
2017-09-21T00:36:15.278Z,7.45
2017-09-21T00:38:43.567Z,7.43
2017-09-21T00:41:11.075Z,7.40
2017-09-21T00:43:38.610Z,7.75
2017-09-21T00:46:06.109Z,7.10
2017-09-21T00:48:34.389Z,7.03
2017-09-21T00:51:02.666Z,7.40
2017-09-21T00:53:30.926Z,7.22
2017-09-21T00:55:58.466Z,9.15
2017-09-21T00:58:25.975Z,7.82
2017-09-21T01:00:53.507Z,7.53
2017-09-21T01:03:21.015Z,7.10
2017-09-21T01:05:48.543Z,8.18
2017-09-21T01:08:16.810Z,8.32
2017-09-21T01:10:45.094Z,7.53
2017-09-21T01:13:13.358Z,7.53
2017-09-21T01:15:41.646Z,7.93
2017-09-21T01:18:09.919Z,7.78
2017-09-21T01:20:38.198Z,8.20
2017-09-21T01:23:06.462Z,7.65
2017-09-21T01:25:33.984Z,7.37
2017-09-21T01:28:01.483Z,8.02
2017-09-21T01:30:29.774Z,8.15
2017-09-21T01:32:58.042Z,7.90
2017-09-21T01:35:26.325Z,8.15
2017-09-21T01:37:54.595Z,8.38
2017-09-21T01:40:22.882Z,7.90
2017-09-21T01:42:51.157Z,7.50
2017-09-21T01:45:19.459Z,8.02
2017-09-21T01:47:46.960Z,7.90
2017-09-21T01:50:14.454Z,7.85
2017-09-21T01:52:42.437Z,7.57
2017-09-21T01:55:09.938Z,7.78
2017-09-21T01:57:37.463Z,7.40
2017-09-21T02:00:04.981Z,8.90
2017-09-21T02:02:33.274Z,7.45
2017-09-21T02:05:01.547Z,7.87
2017-09-21T02:07:29.067Z,7.10
2017-09-21T02:09:56.561Z,8.23
2017-09-21T02:12:24.858Z,7.80
2017-09-21T02:14:52.367Z,7.45
2017-09-21T02:17:19.894Z,7.93
2017-09-21T02:19:47.411Z,8.35
2017-09-21T02:22:15.711Z,8.00
2017-09-21T02:24:43.218Z,9.27
2017-09-21T02:27:10.734Z,8.50
2017-09-21T02:29:38.235Z,8.32
2017-09-21T02:32:05.763Z,8.35
2017-09-21T02:34:33.274Z,8.15
2017-09-21T02:37:00.815Z,7.80
2017-09-21T02:39:28.329Z,8.95
2017-09-21T02:41:55.865Z,7.40
2017-09-21T02:44:24.131Z,8.88
2017-09-21T02:46:51.626Z,8.45
2017-09-21T02:49:19.185Z,8.70
2017-09-21T02:51:47.460Z,9.02
2017-09-21T02:54:15.746Z,9.30
2017-09-21T02:56:43.241Z,8.48
2017-09-21T02:59:10.753Z,8.77
2017-09-21T03:01:39.018Z,7.82
2017-09-21T03:04:07.308Z,7.82
2017-09-21T03:06:35.585Z,9.50
2017-09-21T03:09:03.871Z,7.90
2017-09-21T03:11:31.390Z,7.82
2017-09-21T03:13:58.913Z,8.00
2017-09-21T03:16:26.422Z,8.15
2017-09-21T03:18:53.938Z,8.35
2017-09-21T03:21:22.215Z,7.15
2017-09-21T03:23:49.743Z,8.90
2017-09-21T03:26:17.245Z,8.88
2017-09-21T03:28:44.762Z,7.97
2017-09-21T03:31:12.286Z,6.70
2017-09-21T03:33:39.809Z,7.53
2017-09-21T03:36:07.324Z,8.93
2017-09-21T03:38:35.618Z,6.82
2017-09-21T03:41:03.131Z,8.27
2017-09-21T03:43:30.646Z,7.47
2017-09-21T03:45:58.149Z,7.32
2017-09-21T03:48:25.650Z,8.05
2017-09-21T03:50:53.182Z,7.07
2017-09-21T03:53:20.703Z,8.25
2017-09-21T03:55:48.217Z,7.43
2017-09-21T03:58:16.493Z,6.50
2017-09-21T04:00:44.781Z,7.82
2017-09-21T04:03:12.277Z,7.60
2017-09-21T04:05:39.798Z,7.30
2017-09-21T04:08:07.294Z,6.97
2017-09-21T04:10:35.590Z,8.43
2017-09-21T04:13:03.090Z,6.93
2017-09-21T04:15:30.606Z,8.02
2017-09-21T04:17:58.111Z,8.15
2017-09-21T04:20:25.655Z,7.60
2017-09-21T04:22:53.162Z,8.35
2017-09-21T04:25:21.461Z,7.00
2017-09-21T04:27:48.986Z,7.12
2017-09-21T04:30:16.497Z,7.12
2017-09-21T04:32:44.039Z,7.00
2017-09-21T04:35:11.554Z,7.45
2017-09-21T04:37:39.053Z,6.75
2017-09-21T04:40:06.579Z,7.85
2017-09-21T04:42:34.074Z,7.07
2017-09-21T04:45:01.605Z,6.60
2017-09-21T04:47:29.879Z,7.47
2017-09-21T04:49:58.141Z,6.50
2017-09-21T04:52:25.654Z,7.40
2017-09-21T04:54:53.155Z,6.82
2017-09-21T04:57:20.674Z,6.80
2017-09-21T04:59:48.170Z,6.68
2017-09-21T05:02:15.687Z,7.12
2017-09-21T05:04:43.189Z,6.97
2017-09-21T05:07:10.703Z,6.65
2017-09-21T05:09:38.198Z,7.43
2017-09-21T05:12:05.720Z,5.80
2017-09-21T05:14:33.217Z,7.45
2017-09-21T05:17:00.731Z,6.50
2017-09-21T05:19:28.239Z,6.43
2017-09-21T05:21:55.754Z,7.00
2017-09-21T05:24:23.253Z,7.12
2017-09-21T05:26:50.770Z,6.35
2017-09-21T05:29:18.273Z,7.40
2017-09-21T05:31:45.785Z,6.60
2017-09-21T05:34:13.286Z,6.65
2017-09-21T05:36:40.802Z,6.45
2017-09-21T05:39:08.301Z,6.68
2017-09-21T05:41:35.824Z,5.72
2017-09-21T05:44:03.313Z,5.97
2017-09-21T05:46:30.844Z,6.90
2017-09-21T05:48:58.342Z,6.55
2017-09-21T05:51:25.849Z,6.03
2017-09-21T05:53:53.370Z,5.65
2017-09-21T05:56:21.635Z,6.03
2017-09-21T05:58:49.158Z,6.15
2017-09-21T06:01:16.659Z,6.22
2017-09-21T06:03:44.179Z,6.18
2017-09-21T06:06:11.681Z,6.20
2017-09-21T06:08:39.465Z,7.37
2017-09-21T06:11:06.985Z,6.62
2017-09-21T06:13:34.515Z,7.40
2017-09-21T06:16:02.010Z,6.50
2017-09-21T06:18:29.602Z,6.85
2017-09-21T06:20:57.123Z,8.27
2017-09-21T06:23:24.666Z,6.43
2017-09-21T06:25:52.190Z,7.15
2017-09-21T06:28:19.716Z,7.68
2017-09-21T06:30:47.226Z,7.62
2017-09-21T06:33:14.759Z,7.20
2017-09-21T06:35:42.273Z,7.45
2017-09-21T06:38:09.811Z,6.80
2017-09-21T06:40:37.310Z,7.03
2017-09-21T06:43:04.818Z,7.35
2017-09-21T06:45:32.337Z,8.20
2017-09-21T06:48:00.651Z,7.35
2017-09-21T06:50:28.150Z,7.68
2017-09-21T06:52:55.670Z,8.57
2017-09-21T06:55:23.203Z,7.57
2017-09-21T06:57:51.486Z,7.93
2017-09-21T07:00:19.767Z,7.65
2017-09-21T07:02:47.279Z,7.10
2017-09-21T07:05:14.806Z,7.03
2017-09-21T07:07:42.306Z,7.65
2017-09-21T07:10:09.827Z,7.15
2017-09-21T07:12:37.328Z,7.95
2017-09-21T07:15:04.862Z,8.52
2017-09-21T07:17:32.367Z,8.38
2017-09-21T07:20:00.655Z,8.60
2017-09-21T07:22:28.165Z,9.02
2017-09-21T07:24:55.728Z,9.40
2017-09-21T07:27:23.230Z,8.02
2017-09-21T07:29:50.778Z,10.65
2017-09-21T07:32:18.286Z,10.15
2017-09-21T07:34:45.807Z,9.20
2017-09-21T07:37:13.319Z,10.10
2017-09-21T07:39:40.853Z,11.75
2017-09-21T07:42:08.374Z,10.45
2017-09-21T07:44:36.671Z,10.88
2017-09-21T07:47:04.976Z,13.90
2017-09-21T07:49:32.491Z,14.18
2017-09-21T07:52:00.010Z,15.32
2017-09-21T07:54:27.518Z,14.40
2017-09-21T07:56:55.034Z,14.95
2017-09-21T07:59:22.535Z,16.15
2017-09-21T08:01:50.061Z,17.08
2017-09-21T08:04:17.574Z,17.95
2017-09-21T08:06:45.110Z,17.80
2017-09-21T08:09:12.622Z,20.95
2017-09-21T08:11:40.152Z,20.77
2017-09-21T08:14:07.658Z,20.50
2017-09-21T08:16:35.188Z,18.77
2017-09-21T08:19:02.738Z,19.33
2017-09-21T08:21:30.266Z,18.87
2017-09-21T08:23:57.782Z,20.27
2017-09-21T08:26:25.306Z,23.02
2017-09-21T08:28:52.813Z,19.85
2017-09-21T08:31:20.325Z,20.73
2017-09-21T08:33:48.602Z,21.90
2017-09-21T08:36:16.138Z,22.30
2017-09-21T08:38:44.419Z,20.48
2017-09-21T08:41:12.722Z,21.90
2017-09-21T08:43:40.230Z,20.90
2017-09-21T08:46:07.768Z,20.45
2017-09-21T08:48:35.298Z,21.15
2017-09-21T08:51:02.802Z,22.10
2017-09-21T08:53:30.323Z,20.92
2017-09-21T08:55:57.835Z,22.80
2017-09-21T08:58:25.364Z,21.08
2017-09-21T09:00:53.639Z,20.30
2017-09-21T09:03:21.932Z,19.10
2017-09-21T09:05:49.446Z,22.67
2017-09-21T09:08:16.966Z,17.95
2017-09-21T09:10:44.474Z,17.40
2017-09-21T09:13:11.993Z,17.27
2017-09-21T09:15:39.499Z,13.50
2017-09-21T09:18:07.010Z,16.55
2017-09-21T09:20:34.509Z,17.50
2017-09-21T09:23:02.031Z,17.00
2017-09-21T09:25:29.528Z,14.00
2017-09-21T09:27:57.051Z,14.82
2017-09-21T09:30:24.565Z,15.30
2017-09-21T09:32:52.098Z,14.15
2017-09-21T09:35:20.375Z,13.15
2017-09-21T09:37:48.697Z,15.35
2017-09-21T09:40:16.250Z,15.30
2017-09-21T09:42:43.794Z,14.80
2017-09-21T09:45:11.315Z,13.13
2017-09-21T09:47:39.597Z,12.07
2017-09-21T09:50:07.889Z,14.40
2017-09-21T09:52:36.158Z,15.35
2017-09-21T09:55:04.450Z,14.13
2017-09-21T09:57:31.967Z,10.60
2017-09-21T09:59:59.553Z,11.12
2017-09-21T10:02:27.145Z,12.50
2017-09-21T10:04:54.749Z,10.90
2017-09-21T10:07:23.182Z,11.43
2017-09-21T10:09:50.717Z,11.45
2017-09-21T10:12:18.239Z,10.00
2017-09-21T10:14:45.776Z,12.10
2017-09-21T10:17:14.058Z,10.63
2017-09-21T10:19:42.395Z,11.68
2017-09-21T10:22:09.923Z,10.63
2017-09-21T10:24:37.573Z,10.30
2017-09-21T10:27:05.095Z,10.02
2017-09-21T10:29:32.627Z,11.68
2017-09-21T10:32:00.178Z,11.00
2017-09-21T10:34:27.719Z,10.35
2017-09-21T10:36:55.274Z,10.32
2017-09-21T10:39:22.912Z,11.95
2017-09-21T10:41:51.177Z,11.15
2017-09-21T10:44:18.721Z,9.48
2017-09-21T10:46:46.249Z,9.98
2017-09-21T10:49:13.868Z,9.60
2017-09-21T10:51:41.416Z,9.38
2017-09-21T10:54:09.673Z,8.75
2017-09-21T10:56:37.194Z,9.55
2017-09-21T10:59:04.696Z,8.55
2017-09-21T11:01:32.987Z,8.90
2017-09-21T11:04:01.250Z,9.13
2017-09-21T11:06:28.775Z,8.60
2017-09-21T11:08:56.341Z,9.88
2017-09-21T11:11:23.854Z,7.00
2017-09-21T11:13:51.366Z,7.37
2017-09-21T11:16:18.890Z,7.03
2017-09-21T11:18:46.393Z,7.07
2017-09-21T11:21:13.915Z,7.40
2017-09-21T11:23:41.422Z,6.70
2017-09-21T11:26:08.933Z,8.40
2017-09-21T11:28:36.434Z,6.45
2017-09-21T11:31:03.960Z,6.78
2017-09-21T11:33:31.453Z,6.70
2017-09-21T11:35:58.962Z,7.12
2017-09-21T11:38:26.474Z,6.75
2017-09-21T11:40:53.986Z,5.93
2017-09-21T11:43:21.487Z,4.82
2017-09-21T11:45:49.001Z,4.80
2017-09-21T11:48:16.519Z,5.07
2017-09-21T11:50:44.783Z,4.78
2017-09-21T11:53:12.300Z,5.15
2017-09-21T11:55:39.813Z,5.90
2017-09-21T11:58:07.342Z,5.22
2017-09-21T12:00:34.843Z,5.65
2017-09-21T12:03:03.122Z,4.25
2017-09-21T12:05:31.408Z,5.20
2017-09-21T12:07:58.930Z,4.57
2017-09-21T12:10:26.500Z,5.90
2017-09-21T12:12:54.001Z,5.35
2017-09-21T12:15:21.507Z,5.62
2017-09-21T12:17:49.050Z,4.95
2017-09-21T12:20:16.557Z,5.20
2017-09-21T12:22:44.075Z,6.00
2017-09-21T12:25:11.578Z,6.90
2017-09-21T12:27:39.108Z,5.80
2017-09-21T12:30:06.618Z,6.55
2017-09-21T12:32:34.139Z,5.03
2017-09-21T12:35:02.395Z,6.32
2017-09-21T12:37:29.908Z,6.35
2017-09-21T12:39:57.429Z,5.32
2017-09-21T12:42:24.966Z,6.28
2017-09-21T12:44:52.471Z,5.57
2017-09-21T12:47:20.010Z,5.05
2017-09-21T12:49:47.510Z,5.75
2017-09-21T12:52:15.024Z,5.80
2017-09-21T12:54:43.319Z,4.78
2017-09-21T12:57:10.830Z,4.87
2017-09-21T12:59:38.356Z,5.40
2017-09-21T13:02:05.878Z,6.05
2017-09-21T13:04:34.159Z,4.85
2017-09-21T13:07:02.432Z,5.10
2017-09-21T13:09:29.959Z,6.35
2017-09-21T13:11:57.466Z,5.47
2017-09-21T13:14:25.874Z,5.65
2017-09-21T13:16:53.390Z,6.15
2017-09-21T13:19:21.707Z,7.15
2017-09-21T13:21:49.212Z,5.32
2017-09-21T13:24:16.732Z,7.15
2017-09-21T13:26:44.252Z,6.05
2017-09-21T13:29:12.538Z,6.15
2017-09-21T13:31:40.816Z,5.30
2017-09-21T13:34:08.347Z,4.62
2017-09-21T13:36:35.891Z,5.30
2017-09-21T13:39:04.247Z,5.43
2017-09-21T13:41:31.742Z,5.57
2017-09-21T13:43:59.282Z,5.47
2017-09-21T13:46:26.787Z,6.40
2017-09-21T13:48:55.052Z,5.85
2017-09-21T13:51:23.328Z,6.70
2017-09-21T13:53:51.600Z,6.37
2017-09-21T13:56:19.110Z,6.03
2017-09-21T13:58:46.603Z,6.43
2017-09-21T14:01:14.131Z,5.72
2017-09-21T14:03:41.641Z,5.85
2017-09-21T14:06:09.927Z,6.18
2017-09-21T14:08:38.202Z,4.95
2017-09-21T14:11:06.482Z,6.12
2017-09-21T14:13:34.747Z,6.85
2017-09-21T14:16:03.035Z,6.37
2017-09-21T14:18:31.300Z,6.15
2017-09-21T14:20:59.591Z,6.40
2017-09-21T14:23:27.869Z,6.18
2017-09-21T14:25:55.428Z,7.07
2017-09-21T14:28:23.703Z,5.55
2017-09-21T14:30:51.982Z,6.50
2017-09-21T14:33:19.491Z,6.15
2017-09-21T14:35:47.026Z,6.78
2017-09-21T14:38:14.531Z,8.40
2017-09-21T14:40:42.043Z,6.85
2017-09-21T14:43:09.557Z,5.65
2017-09-21T14:45:37.091Z,6.60
2017-09-21T14:48:04.594Z,6.43
2017-09-21T14:50:32.106Z,6.43
2017-09-21T14:52:59.629Z,6.87
2017-09-21T14:55:27.136Z,6.47
2017-09-21T14:57:54.670Z,6.50
2017-09-21T15:00:22.199Z,6.35
2017-09-21T15:02:49.714Z,6.82
2017-09-21T15:05:17.236Z,6.60
2017-09-21T15:07:44.764Z,7.05
2017-09-21T15:10:13.041Z,6.25
2017-09-21T15:12:41.516Z,6.35
2017-09-21T15:15:09.017Z,6.10
2017-09-21T15:17:36.618Z,6.55
2017-09-21T15:20:04.110Z,6.10
2017-09-21T15:22:31.686Z,6.15
2017-09-21T15:24:59.186Z,5.40
2017-09-21T15:27:26.710Z,5.53
2017-09-21T15:29:54.206Z,5.57
2017-09-21T15:32:21.786Z,5.72
2017-09-21T15:34:50.062Z,5.28
2017-09-21T15:37:17.589Z,5.37
2017-09-21T15:39:45.093Z,5.90
2017-09-21T15:42:13.370Z,5.15
2017-09-21T15:44:41.629Z,4.95
2017-09-21T15:47:09.157Z,5.43
2017-09-21T15:49:36.661Z,5.40
2017-09-21T15:52:04.927Z,5.30
2017-09-21T15:54:33.214Z,4.68
2017-09-21T15:57:01.499Z,4.90
2017-09-21T15:59:29.787Z,5.22
2017-09-21T16:01:57.320Z,4.95
2017-09-21T16:04:24.845Z,5.90
2017-09-21T16:06:52.354Z,6.75
2017-09-21T16:09:20.646Z,6.20
2017-09-21T16:11:48.158Z,5.32
2017-09-21T16:14:15.682Z,4.95
2017-09-21T16:16:43.176Z,5.57
2017-09-21T16:19:10.694Z,5.62
2017-09-21T16:21:38.195Z,5.40
2017-09-21T16:24:05.741Z,5.43
2017-09-21T16:26:33.238Z,5.05
2017-09-21T16:29:01.539Z,7.15
2017-09-21T16:31:29.042Z,5.05
2017-09-21T16:33:56.561Z,5.60
2017-09-21T16:36:24.062Z,4.70
2017-09-21T16:38:51.681Z,5.35
2017-09-21T16:41:19.250Z,5.12
2017-09-21T16:43:46.805Z,5.30
2017-09-21T16:46:14.334Z,5.00
2017-09-21T16:48:42.746Z,4.97
2017-09-21T16:51:11.020Z,5.07
2017-09-21T16:53:38.623Z,5.07
2017-09-21T16:56:06.877Z,5.90
2017-09-21T16:58:34.473Z,5.60
2017-09-21T17:01:02.782Z,6.87
2017-09-21T17:03:30.323Z,6.03
2017-09-21T17:05:58.623Z,10.52
2017-09-21T17:08:26.118Z,7.50
2017-09-21T17:10:53.652Z,12.13
2017-09-21T17:13:21.177Z,6.78
2017-09-21T17:15:49.454Z,6.87
2017-09-21T17:18:17.731Z,6.15
2017-09-21T17:20:45.280Z,6.05
2017-09-21T17:23:13.567Z,9.20
2017-09-21T17:25:41.103Z,7.60
2017-09-21T17:28:08.614Z,7.95
2017-09-21T17:30:36.141Z,6.43
2017-09-21T17:33:04.410Z,5.90
2017-09-21T17:35:32.693Z,6.22
2017-09-21T17:38:01.000Z,7.25
2017-09-21T17:40:28.510Z,7.60
2017-09-21T17:42:56.022Z,7.53
2017-09-21T17:45:23.540Z,7.40
2017-09-21T17:47:51.830Z,6.72
2017-09-21T17:50:20.135Z,7.30
2017-09-21T17:52:47.654Z,8.15
2017-09-21T17:55:15.944Z,7.30
2017-09-21T17:57:43.466Z,8.10
2017-09-21T18:00:10.963Z,6.62
2017-09-21T18:02:39.237Z,7.00
2017-09-21T18:05:07.514Z,8.00
2017-09-21T18:07:35.587Z,7.85
2017-09-21T18:10:03.103Z,6.75
2017-09-21T18:12:30.651Z,8.30
2017-09-21T18:14:58.156Z,8.57
2017-09-21T18:17:26.498Z,7.35
2017-09-21T18:19:54.007Z,7.43
2017-09-21T18:22:21.527Z,6.60
2017-09-21T18:24:49.039Z,8.10
2017-09-21T18:27:16.580Z,8.88
2017-09-21T18:29:44.851Z,9.07
2017-09-21T18:32:12.450Z,7.80
2017-09-21T18:34:39.945Z,8.48
2017-09-21T18:37:07.470Z,8.38
2017-09-21T18:39:34.980Z,10.00
2017-09-21T18:42:03.279Z,9.05
2017-09-21T18:44:31.549Z,8.93
2017-09-21T18:46:59.842Z,7.80
2017-09-21T18:49:30.352Z,8.82
2017-09-21T18:51:58.666Z,9.30
2017-09-21T18:54:26.239Z,8.68
2017-09-21T18:56:53.749Z,9.00
2017-09-21T18:59:22.029Z,9.93
2017-09-21T19:01:50.290Z,9.38
2017-09-21T19:04:18.575Z,9.80
2017-09-21T19:06:46.861Z,10.40
2017-09-21T19:09:14.414Z,13.05
2017-09-21T19:11:42.694Z,13.40
2017-09-21T19:14:10.990Z,13.23
2017-09-21T19:16:38.490Z,10.70
2017-09-21T19:19:06.019Z,12.20
2017-09-21T19:21:33.535Z,11.25
2017-09-21T19:24:01.062Z,14.07
2017-09-21T19:26:28.588Z,14.60
2017-09-21T19:28:56.121Z,14.45
2017-09-21T19:31:23.635Z,10.88
2017-09-21T19:33:51.188Z,14.45
2017-09-21T19:36:18.708Z,12.30
2017-09-21T19:38:46.232Z,12.13
2017-09-21T19:41:13.785Z,11.60
2017-09-21T19:43:41.318Z,13.18
2017-09-21T19:46:08.901Z,14.63
2017-09-21T19:48:36.492Z,15.75
2017-09-21T19:51:04.015Z,17.83
2017-09-21T19:53:31.618Z,22.37
2017-09-21T19:55:59.886Z,17.17
2017-09-21T19:58:28.175Z,17.27
2017-09-21T20:00:56.486Z,21.42
2017-09-21T20:03:24.065Z,19.35
2017-09-21T20:05:51.629Z,18.15
2017-09-21T20:08:19.131Z,17.08
2017-09-21T20:10:47.470Z,18.10
2017-09-21T20:13:14.978Z,15.88
2017-09-21T20:15:42.517Z,15.52
2017-09-21T20:18:10.799Z,14.60
2017-09-21T20:20:39.102Z,14.85
2017-09-21T20:23:06.614Z,13.68
2017-09-21T20:25:34.932Z,12.93
2017-09-21T20:28:02.444Z,12.55
2017-09-21T20:30:29.976Z,13.30
2017-09-21T20:32:57.493Z,15.77
2017-09-21T20:35:25.782Z,12.93
2017-09-21T20:37:54.078Z,13.07
2017-09-21T20:40:21.618Z,13.52
2017-09-21T20:42:49.127Z,12.27
2017-09-21T20:45:16.684Z,11.55
2017-09-21T20:47:44.190Z,11.27
2017-09-21T20:50:12.482Z,12.23
2017-09-21T20:52:39.989Z,11.38
2017-09-21T20:55:07.542Z,11.60
2017-09-21T20:57:35.045Z,12.02
2017-09-21T21:00:03.322Z,12.15
2017-09-21T21:02:31.642Z,11.30
2017-09-21T21:04:59.154Z,12.65
2017-09-21T21:07:27.441Z,11.93
2017-09-21T21:09:54.980Z,12.10
2017-09-21T21:12:22.517Z,12.32
2017-09-21T21:14:50.031Z,11.27
2017-09-21T21:17:17.557Z,12.60
2017-09-21T21:19:45.058Z,10.93
2017-09-21T21:22:12.583Z,11.60
2017-09-21T21:24:40.102Z,11.73
2017-09-21T21:27:07.666Z,10.95
2017-09-21T21:29:35.196Z,10.60
2017-09-21T21:32:02.722Z,11.65
2017-09-21T21:34:30.988Z,10.52
2017-09-21T21:36:58.515Z,11.38
2017-09-21T21:39:26.020Z,11.40
2017-09-21T21:41:54.317Z,10.27
2017-09-21T21:44:21.837Z,11.27
2017-09-21T21:46:49.367Z,10.02
2017-09-21T21:49:16.919Z,10.82
2017-09-21T21:51:44.453Z,10.25
2017-09-21T21:54:11.967Z,9.98
2017-09-21T21:56:39.562Z,10.38
2017-09-21T21:59:07.850Z,9.88
2017-09-21T22:01:35.362Z,10.52
2017-09-21T22:04:02.886Z,10.68
2017-09-21T22:06:30.411Z,10.13
2017-09-21T22:08:58.705Z,10.18
2017-09-21T22:11:26.201Z,9.63
2017-09-21T22:13:53.730Z,10.35
2017-09-21T22:16:21.231Z,9.45
2017-09-21T22:18:48.774Z,8.98
2017-09-21T22:21:16.294Z,10.35
2017-09-21T22:23:43.798Z,10.93
2017-09-21T22:26:11.326Z,10.57
2017-09-21T22:28:38.839Z,10.68
2017-09-21T22:31:06.366Z,11.20
2017-09-21T22:33:33.875Z,12.00
2017-09-21T22:36:02.163Z,12.35
2017-09-21T22:38:30.442Z,11.40
2017-09-21T22:40:58.735Z,11.90
2017-09-21T22:43:26.245Z,11.63
2017-09-21T22:45:53.773Z,11.15
2017-09-21T22:48:21.282Z,10.77
2017-09-21T22:50:49.582Z,11.23
2017-09-21T22:53:17.106Z,10.93
2017-09-21T22:55:44.630Z,11.27
2017-09-21T22:58:12.134Z,11.40
2017-09-21T23:00:40.413Z,9.82
2017-09-21T23:03:07.929Z,11.07
2017-09-21T23:05:35.463Z,10.80
2017-09-21T23:08:03.023Z,10.70
2017-09-21T23:10:30.552Z,10.50
2017-09-21T23:12:58.825Z,10.40
2017-09-21T23:15:27.142Z,11.18
2017-09-21T23:17:54.682Z,9.90
2017-09-21T23:20:22.194Z,10.32
2017-09-21T23:22:49.715Z,10.05
2017-09-21T23:25:17.230Z,9.68
2017-09-21T23:27:44.760Z,10.95
2017-09-21T23:30:12.278Z,10.23
2017-09-21T23:32:39.807Z,10.07
2017-09-21T23:35:07.310Z,10.05
2017-09-21T23:37:34.835Z,9.75
2017-09-21T23:40:03.147Z,10.40
2017-09-21T23:42:30.673Z,10.05
2017-09-21T23:44:58.950Z,9.00
2017-09-21T23:47:26.466Z,9.30
2017-09-21T23:49:53.965Z,9.55
2017-09-21T23:52:22.251Z,9.20
2017-09-21T23:54:50.518Z,8.35
2017-09-21T23:57:18.799Z,10.48
2017-09-21T23:59:47.078Z,8.57
